Time;durP1;ratioP1;P1;durP2;ratioP2;P2;SDS_P1;SDS_P2;PMS_P1;PMS_P2;Temp;Humidity;BMP_temperature;BMP_pressure;BME280_temperature;BME280_humidity;BME280_pressure;Samples;Min_cycle;Max_cycle;Signal;HPM_P1;HPM_P2
2021/12/25 00:02:19;;;;;;;11.43;4.47;;;;;;;-2.60;100.00;98547.22;5033828;28;20042;-75
2021/12/25 00:05:05;;;;;;;9.90;5.10;;;;;;;-2.57;100.00;98561.72;5019962;28;20053;-75
2021/12/25 00:07:50;;;;;;;17.67;5.60;;;;;;;-2.60;100.00;98567.72;5033988;28;20060;-75
2021/12/25 00:10:34;;;;;;;12.18;3.72;;;;;;;-2.80;100.00;98578.63;5034542;28;20116;-75
2021/12/25 00:13:19;;;;;;;7.28;3.05;;;;;;;-2.86;100.00;98590.56;5034545;28;20053;-75
2021/12/25 00:16:05;;;;;;;4.78;2.67;;;;;;;-2.94;100.00;98610.13;5019884;28;20053;-75
2021/12/25 00:18:49;;;;;;;9.02;4.10;;;;;;;-2.97;100.00;98614.38;5019809;28;20042;-75
2021/12/25 00:21:34;;;;;;;7.45;3.10;;;;;;;-2.97;100.00;98619.50;5033649;28;20065;-75
2021/12/25 00:24:20;;;;;;;5.57;2.60;;;;;;;-3.25;100.00;98624.34;5033507;28;20042;-75
2021/12/25 00:30:16;;;;;;;4.32;1.75;;;;;;;-3.54;100.00;98636.78;5033486;28;20046;-75
2021/12/25 00:33:06;;;;;;;3.65;2.53;;;;;;;-3.53;100.00;98652.16;5033393;28;20045;-75
2021/12/25 00:35:51;;;;;;;6.93;2.28;;;;;;;-3.63;100.00;98659.72;5033648;28;20397;-75
2021/12/25 00:38:37;;;;;;;3.35;1.95;;;;;;;-3.57;100.00;98657.22;5033428;28;20049;-75
2021/12/25 00:41:24;;;;;;;5.82;2.45;;;;;;;-3.60;100.00;98662.31;5019423;28;20042;-75
2021/12/25 00:44:08;;;;;;;6.25;3.13;;;;;;;-3.68;100.00;98681.81;5019300;28;20171;-75
2021/12/25 00:46:53;;;;;;;5.53;2.65;;;;;;;-3.83;100.00;98685.88;5019457;28;20053;-75
2021/12/25 00:49:38;;;;;;;4.28;1.67;;;;;;;-3.76;100.00;98690.25;5034116;28;20049;-75
2021/12/25 00:52:23;;;;;;;4.15;2.22;;;;;;;-3.84;100.00;98698.63;5033145;28;20038;-75
2021/12/25 00:55:08;;;;;;;2.90;1.35;;;;;;;-3.77;100.00;98709.00;5034012;28;20048;-75
2021/12/25 00:57:53;;;;;;;2.88;1.58;;;;;;;-3.87;100.00;98726.72;5033153;28;20033;-75
2021/12/25 01:00:38;;;;;;;2.60;1.20;;;;;;;-4.00;100.00;98720.56;5032961;28;20121;-74
2021/12/25 01:03:24;;;;;;;8.40;2.45;;;;;;;-4.14;100.00;98732.28;5033075;28;20042;-75
2021/12/25 01:06:08;;;;;;;3.80;1.33;;;;;;;-4.28;100.00;98726.94;5032956;28;20045;-75
2021/12/25 01:08:53;;;;;;;4.18;1.38;;;;;;;-4.39;100.00;98736.97;5032985;28;20045;-75
2021/12/25 01:11:41;;;;;;;6.65;1.65;;;;;;;-4.51;100.00;98745.31;5005509;28;20050;-75
2021/12/25 01:48:08;;;;;;;5.45;2.08;;;;;;;-6.22;100.00;98821.56;5019427;28;20140;-75
2021/12/25 01:50:54;;;;;;;5.18;1.80;;;;;;;-6.36;100.00;98828.00;5032555;28;20038;-75
2021/12/25 01:53:39;;;;;;;6.20;2.00;;;;;;;-6.40;100.00;98834.69;5032586;28;20041;-76
2021/12/25 01:56:24;;;;;;;3.17;1.65;;;;;;;-6.37;100.00;98849.19;5032237;28;20042;-75
2021/12/25 01:59:08;;;;;;;4.85;2.15;;;;;;;-6.52;100.00;98843.69;5032055;28;20045;-75
2021/12/25 02:01:53;;;;;;;3.50;1.65;;;;;;;-6.59;100.00;98847.75;5032193;28;20115;-76
2021/12/25 02:04:38;;;;;;;6.35;2.10;;;;;;;-6.65;100.00;98856.09;5032124;28;20046;-76
2021/12/25 02:07:22;;;;;;;9.88;2.20;;;;;;;-6.63;100.00;98859.53;5032091;28;20053;-75
2021/12/25 02:10:08;;;;;;;6.25;2.20;;;;;;;-6.76;100.00;98854.03;5018356;28;20041;-75
2021/12/25 02:12:53;;;;;;;6.93;2.35;;;;;;;-6.88;100.00;98863.06;5032131;28;20046;-76
2021/12/25 02:15:46;;;;;;;4.85;1.90;;;;;;;-6.86;100.00;98860.56;5032769;28;20346;-76
2021/12/25 02:21:43;;;;;;;6.53;2.28;;;;;;;-7.04;100.00;98868.53;5032004;28;20057;-75
2021/12/25 02:24:28;;;;;;;4.53;2.00;;;;;;;-7.08;100.00;98871.81;5031789;28;20045;-75
2021/12/25 02:27:12;;;;;;;6.70;2.40;;;;;;;-7.31;100.00;98881.28;5032646;28;20037;-75
2021/12/25 02:29:57;;;;;;;8.40;2.47;;;;;;;-7.35;100.00;98879.44;5032052;28;20045;-75
2021/12/25 02:32:44;;;;;;;6.93;1.67;;;;;;;-7.40;100.00;98881.88;5032064;28;20045;-75
2021/12/25 02:35:29;;;;;;;5.78;2.45;;;;;;;-7.46;100.00;98890.97;5031842;28;20431;-75
2021/12/25 02:38:13;;;;;;;6.13;2.10;;;;;;;-7.53;100.00;98893.31;5031775;28;20060;-75
2021/12/25 02:40:58;;;;;;;4.82;2.20;;;;;;;-7.59;100.00;98892.28;5032654;28;20110;-75
2021/12/25 02:43:45;;;;;;;7.15;2.25;;;;;;;-7.67;100.00;98898.78;5018047;28;20110;-75
2021/12/25 02:46:33;;;;;;;8.55;2.70;;;;;;;-7.65;100.00;98905.63;5018633;28;20424;-75
2021/12/25 02:49:18;;;;;;;4.88;2.17;;;;;;;-7.79;100.00;98901.78;5031726;28;20458;-75
2021/12/25 02:52:05;;;;;;;7.05;3.00;;;;;;;-7.90;100.00;98909.03;5034893;28;20041;-75
2021/12/25 02:54:50;;;;;;;6.30;3.15;;;;;;;-7.92;100.00;98922.53;5021301;28;20045;-75
2021/12/25 02:57:35;;;;;;;5.20;2.25;;;;;;;-8.00;100.00;98915.50;5035035;28;20037;-75
2021/12/25 03:00:23;;;;;;;6.85;2.25;;;;;;;-8.06;100.00;98917.84;5034831;28;20056;-76
2021/12/25 03:03:08;;;;;;;7.82;2.67;;;;;;;-8.07;100.00;98928.81;5034846;28;20042;-75
2021/12/25 03:05:53;;;;;;;7.43;2.28;;;;;;;-8.14;100.00;98924.31;5034929;28;20041;-76
2021/12/25 03:08:38;;;;;;;6.68;2.10;;;;;;;-8.23;100.00;98917.22;5021277;28;20041;-76
2021/12/25 03:11:24;;;;;;;4.30;2.35;;;;;;;-8.23;100.00;98914.69;5035647;28;20041;-75
2021/12/25 03:14:24;;;;;;;5.90;2.33;;;;;;;-8.29;100.00;98913.63;5035453;28;20102;-75
2021/12/25 03:17:08;;;;;;;6.00;2.83;;;;;;;-8.26;100.00;98919.66;5034816;28;20038;-75
2021/12/25 03:19:55;;;;;;;8.32;2.85;;;;;;;-8.42;100.00;98914.88;5034882;28;20048;-75
2021/12/25 03:22:40;;;;;;;10.07;2.75;;;;;;;-8.42;100.00;98917.44;5034710;28;20435;-75
2021/12/25 03:25:26;;;;;;;9.05;3.58;;;;;;;-8.37;100.00;98922.66;5020940;28;20041;-75
2021/12/25 03:28:15;;;;;;;7.70;2.15;;;;;;;-8.40;100.00;98925.13;5021106;28;20140;-75
2021/12/25 03:31:04;;;;;;;5.55;2.42;;;;;;;-8.45;100.00;98934.22;5035465;28;20038;-75
2021/12/25 03:33:54;;;;;;;6.00;3.25;;;;;;;-8.57;100.00;98939.75;5034541;28;20052;-75
2021/12/25 03:36:38;;;;;;;5.53;2.00;;;;;;;-8.57;100.00;98947.38;5034453;28;20059;-75
2021/12/25 03:39:23;;;;;;;5.80;1.98;;;;;;;-8.69;100.00;98950.31;5035003;28;20042;-75
2021/12/25 03:42:09;;;;;;;3.55;1.92;;;;;;;-8.77;100.00;98951.72;5034450;28;20059;-75
2021/12/25 03:44:53;;;;;;;6.03;2.13;;;;;;;-8.88;100.00;98963.13;5034537;28;20042;-75
2021/12/25 03:47:40;;;;;;;6.70;2.83;;;;;;;-8.97;100.00;98963.63;5020488;28;20442;-75
2021/12/25 03:59:30;;;;;;;6.63;2.80;;;;;;;-9.39;100.00;98962.78;5034017;28;20053;-75
2021/12/25 04:02:20;;;;;;;9.27;3.60;;;;;;;-9.52;100.00;98975.00;5033563;28;20332;-75
2021/12/25 04:05:13;;;;;;;6.38;2.65;;;;;;;-9.65;100.00;98988.81;5034950;28;20113;-75
2021/12/25 04:08:05;;;;;;;7.38;2.63;;;;;;;-9.81;100.00;98988.09;5034115;28;20128;-75
2021/12/25 04:10:53;;;;;;;5.80;2.70;;;;;;;-9.94;100.00;98996.88;5034091;28;20041;-75
2021/12/25 04:13:39;;;;;;;4.75;2.42;;;;;;;-10.03;100.00;98994.81;5020089;28;20049;-75
2021/12/25 04:16:26;;;;;;;4.47;1.83;;;;;;;-10.13;100.00;99003.66;5033817;28;20099;-75
2021/12/25 04:19:10;;;;;;;6.78;2.28;;;;;;;-10.17;100.00;99016.09;5033825;28;20042;-75
2021/12/25 04:22:06;;;;;;;3.63;1.95;;;;;;;-10.16;100.00;99015.34;5033989;28;20037;-75
2021/12/25 04:24:52;;;;;;;5.72;1.50;;;;;;;-10.26;100.00;99024.22;5033773;28;20049;-75
2021/12/25 04:27:38;;;;;;;4.50;1.88;;;;;;;-10.25;100.00;99027.59;5033794;28;20045;-75
2021/12/25 04:30:36;;;;;;;3.55;2.15;;;;;;;-10.32;100.00;99030.69;5019885;28;20098;-75
2021/12/25 05:04:00;;;;;;;6.60;4.10;;;;;;;-11.14;100.00;99074.09;5020097;28;20053;-75
2021/12/25 05:06:55;;;;;;;7.50;4.63;;;;;;;-11.15;100.00;99069.81;5033130;28;20045;-75
2021/12/25 05:09:40;;;;;;;4.90;3.03;;;;;;;-11.28;100.00;99075.06;5033133;28;20053;-75
2021/12/25 05:12:25;;;;;;;6.33;2.90;;;;;;;-11.37;100.00;99076.38;5032635;28;20041;-75
2021/12/25 05:15:09;;;;;;;6.07;2.58;;;;;;;-11.46;100.00;99083.47;5033385;28;20496;-76
2021/12/25 05:17:54;;;;;;;9.73;3.53;;;;;;;-11.48;100.00;99089.25;5033924;28;20042;-75
2021/12/25 05:20:39;;;;;;;4.10;2.17;;;;;;;-11.55;100.00;99088.06;5034995;28;20090;-75
2021/12/25 05:23:24;;;;;;;4.43;1.50;;;;;;;-11.62;100.00;99101.19;5033911;28;20041;-75
2021/12/25 05:26:08;;;;;;;6.90;2.50;;;;;;;-11.62;100.00;99093.63;5033696;28;20052;-75
2021/12/25 05:29:01;;;;;;;4.77;2.07;;;;;;;-11.48;100.00;99105.28;5020003;28;20041;-75
2021/12/25 05:31:50;;;;;;;3.83;2.30;;;;;;;-11.65;100.00;99112.00;5020186;28;20048;-75
2021/12/25 05:35:01;;;;;;;6.47;1.90;;;;;;;-11.65;100.00;99114.53;5014299;28;20142;-75
2021/12/25 05:38:09;;;;;;;;;;;;;;;-11.62;100.00;99123.94;5034550;28;20037;-75
2021/12/25 05:41:04;;;;;;;5.83;2.57;;;;;;;-11.71;100.00;99120.94;5033103;28;19921;-75
2021/12/25 05:43:48;;;;;;;7.60;2.93;;;;;;;-11.70;100.00;99130.25;5019256;28;20061;-76
2021/12/25 05:46:44;;;;;;;7.83;3.83;;;;;;;-11.79;100.00;99128.13;5021141;28;20385;-75
2021/12/25 05:49:29;;;;;;;6.80;3.37;;;;;;;-11.75;100.00;99131.69;5033253;28;20046;-75
2021/12/25 05:52:28;;;;;;;11.07;3.57;;;;;;;-11.81;100.00;99135.59;5033055;28;20045;-75
2021/12/25 05:55:36;;;;;;;11.20;3.33;;;;;;;-11.88;100.00;99130.19;5019902;28;20439;-75
2021/12/25 05:58:53;;;;;;;11.10;3.40;;;;;;;-11.85;100.00;99140.47;5000184;28;20100;-75
2021/12/25 06:02:04;;;;;;;7.53;3.57;;;;;;;-11.89;100.00;99141.06;5033522;28;20048;-75
2021/12/25 06:04:49;;;;;;;11.03;4.03;;;;;;;-11.92;100.00;99151.91;5032255;28;20049;-75
2021/12/25 06:07:34;;;;;;;10.20;3.87;;;;;;;-12.01;100.00;99164.03;5032707;28;20049;-75
2021/12/25 06:10:20;;;;;;;9.40;3.47;;;;;;;-12.11;100.00;99162.69;5032619;28;20120;-75
2021/12/25 06:13:10;;;;;;;9.33;3.50;;;;;;;-12.13;100.00;99158.31;5032788;28;20050;-75
2021/12/25 06:15:56;;;;;;;8.60;3.83;;;;;;;-12.04;100.00;99172.31;5032646;28;20041;-75
2021/12/25 06:19:01;;;;;;;8.87;3.87;;;;;;;-12.11;100.00;99172.78;5032600;28;20041;-75
2021/12/25 06:21:50;;;;;;;15.53;6.40;;;;;;;-12.13;100.00;99169.28;5019359;28;20049;-75
2021/12/25 06:24:49;;;;;;;13.47;5.80;;;;;;;-12.27;100.00;99171.06;5021552;28;20050;-75
2021/12/25 06:27:52;;;;;;;27.17;9.60;;;;;;;-12.31;100.00;99181.81;5035901;28;20108;-75
2021/12/25 06:30:51;;;;;;;74.53;25.83;;;;;;;-12.48;100.00;99188.44;5036417;28;20431;-75
2021/12/25 06:33:38;;;;;;;35.13;15.33;;;;;;;-12.64;100.00;99195.94;5035622;28;20050;-75
2021/12/25 06:36:42;;;;;;;36.83;13.88;;;;;;;-12.62;100.00;99194.34;5036217;28;20045;-75
2021/12/25 06:39:41;;;;;;;75.40;24.70;;;;;;;-12.61;100.00;99201.13;5035365;28;20041;-75
2021/12/25 06:42:31;;;;;;;71.73;23.77;;;;;;;-12.66;100.00;99199.16;5035293;28;20041;-75
2021/12/25 06:45:16;;;;;;;82.23;25.33;;;;;;;-12.66;100.00;99204.19;5021512;28;20045;-75
2021/12/25 06:48:00;;;;;;;69.20;20.50;;;;;;;-12.66;100.00;99215.16;5021567;28;20054;-75
2021/12/25 06:51:05;;;;;;;51.10;17.63;;;;;;;-12.68;100.00;99219.25;5035885;28;20037;-75
2021/12/25 06:54:18;;;;;;;42.07;15.97;;;;;;;-12.71;100.00;99221.59;5020460;28;20375;-75
2021/12/25 06:57:12;;;;;;;44.33;14.73;;;;;;;-12.74;100.00;99228.97;5035185;28;20037;-75
2021/12/25 06:59:57;;;;;;;35.33;13.83;;;;;;;-12.74;100.00;99229.88;5021027;28;20407;-75
2021/12/25 07:02:41;;;;;;;35.63;13.97;;;;;;;-12.76;100.00;99226.38;5035130;28;20038;-75
2021/12/25 07:05:44;;;;;;;65.55;21.90;;;;;;;-12.70;100.00;99233.44;5035671;28;20042;-75
2021/12/25 07:08:55;;;;;;;56.10;19.97;;;;;;;-12.72;100.00;99243.44;5035727;28;20042;-75
2021/12/25 07:11:58;;;;;;;;;;;;;;;-12.73;100.00;99249.25;5036071;28;20178;-75
2021/12/25 07:14:54;;;;;;;53.73;21.17;;;;;;;-12.78;100.00;99252.28;5035566;28;19921;-75
2021/12/25 07:18:11;;;;;;;56.23;22.83;;;;;;;-12.75;100.00;99257.53;5017938;28;20440;-75
2021/12/25 07:21:05;;;;;;;70.90;26.87;;;;;;;-12.81;100.00;99252.97;5032942;28;20055;-74
2021/12/25 07:24:09;;;;;;;78.07;31.02;;;;;;;-12.71;100.00;99252.72;5021396;28;20042;-75
2021/12/25 07:27:05;;;;;;;60.23;25.27;;;;;;;-12.58;100.00;99245.88;5032770;28;20049;-75
2021/12/25 07:29:58;;;;;;;41.67;20.00;;;;;;;-12.52;100.00;99249.59;5032936;28;20384;-75
2021/12/25 07:32:42;;;;;;;43.03;17.87;;;;;;;-12.45;100.00;99258.41;5033560;28;20041;-74
2021/12/25 07:35:27;;;;;;;53.33;19.37;;;;;;;-12.35;100.00;99263.16;5033593;28;20041;-75
2021/12/25 07:38:12;;;;;;;55.43;23.77;;;;;;;-12.27;100.00;99254.38;5033434;28;20102;-75
2021/12/25 07:40:56;;;;;;;49.30;22.10;;;;;;;-12.15;100.00;99256.75;5033420;28;20049;-75
2021/12/25 07:43:40;;;;;;;43.67;22.47;;;;;;;-12.09;100.00;99253.66;5033441;28;20041;-75
2021/12/25 07:46:39;;;;;;;47.40;23.67;;;;;;;-11.97;100.00;99250.94;5033384;28;20053;-74
2021/12/25 07:49:24;;;;;;;69.27;28.97;;;;;;;-11.75;100.00;99246.25;5033772;28;20046;-74
2021/12/25 07:52:08;;;;;;;49.03;22.23;;;;;;;-11.52;100.00;99247.47;5032973;28;20098;-75
2021/12/25 07:54:54;;;;;;;46.20;19.07;;;;;;;-11.39;100.00;99259.97;5034654;28;20042;-75
2021/12/25 07:57:39;;;;;;;35.30;15.30;;;;;;;-11.16;100.00;99257.78;5020924;28;20451;-75
2021/12/25 08:00:23;;;;;;;41.13;18.23;;;;;;;-10.98;100.00;99263.78;5035244;28;20132;-74
2021/12/25 08:03:08;;;;;;;40.40;14.13;;;;;;;-10.79;100.00;99263.03;5034402;28;20072;-74
2021/12/25 08:05:52;;;;;;;45.13;17.50;;;;;;;-10.41;100.00;99267.47;5034314;28;20045;-75
2021/12/25 08:08:37;;;;;;;77.83;28.33;;;;;;;-10.23;100.00;99256.50;5034686;28;20048;-75
2021/12/25 08:11:22;;;;;;;494.95;160.75;;;;;;;-9.92;100.00;99262.19;5034981;28;20426;-75
2021/12/25 08:14:06;;;;;;;546.78;210.95;;;;;;;-9.74;100.00;99258.81;5034259;28;20049;-75
2021/12/25 08:16:56;;;;;;;217.27;86.65;;;;;;;-9.41;100.00;99274.69;5034794;28;20120;-75
2021/12/25 08:19:42;;;;;;;83.47;31.30;;;;;;;-9.07;100.00;99281.28;5034246;28;20038;-75
2021/12/25 08:22:46;;;;;;;55.67;21.67;;;;;;;-8.82;100.00;99288.31;5034798;28;20128;-75
2021/12/25 08:25:49;;;;;;;47.28;20.95;;;;;;;-8.44;100.00;99299.25;5033985;28;20493;-75
2021/12/25 08:28:53;;;;;;;46.03;19.30;;;;;;;-8.25;100.00;99296.63;5035095;28;20065;-75
2021/12/25 08:31:56;;;;;;;61.05;22.20;;;;;;;-8.20;100.00;99306.97;5034784;28;20041;-75
2021/12/25 08:34:50;;;;;;;67.43;29.50;;;;;;;-7.98;100.00;99303.63;5033707;28;20056;-75
2021/12/25 08:37:44;;;;;;;83.78;35.67;;;;;;;-7.71;100.00;99304.72;5034155;28;20038;-75
2021/12/25 08:40:29;;;;;;;81.57;33.95;;;;;;;-7.48;100.00;99302.22;5033816;28;20041;-75
2021/12/25 08:43:16;;;;;;;76.72;32.28;;;;;;;-7.23;100.00;99306.56;5033060;28;20053;-75
2021/12/25 08:46:12;;;;;;;92.60;36.35;;;;;;;-7.35;100.00;99318.00;5032557;28;20102;-75
2021/12/25 08:48:57;;;;;;;138.90;57.35;;;;;;;-6.99;100.00;99311.69;5031579;28;20043;-75
2021/12/25 08:51:44;;;;;;;124.30;56.13;;;;;;;-7.03;100.00;99320.03;5032501;28;20065;-75
2021/12/25 08:54:30;;;;;;;96.20;44.58;;;;;;;-6.84;100.00;99325.00;5031758;28;20057;-75
2021/12/25 08:57:19;;;;;;;108.78;45.40;;;;;;;-6.37;100.00;99323.25;5032228;28;20124;-75
2021/12/25 09:00:05;;;;;;;130.50;56.00;;;;;;;-6.25;100.00;99327.91;5017686;28;20114;-75
2021/12/25 09:02:49;;;;;;;130.55;54.50;;;;;;;-6.08;100.00;99325.91;5032066;28;20072;-75
2021/12/25 09:05:35;;;;;;;127.03;48.83;;;;;;;-5.95;100.00;99317.84;5031713;28;20042;-75
2021/12/25 09:08:20;;;;;;;92.60;38.17;;;;;;;-5.72;100.00;99327.13;5033605;28;20053;-75
2021/12/25 09:11:04;;;;;;;86.55;34.03;;;;;;;-6.06;100.00;99321.75;5034203;28;20073;-75
2021/12/25 09:13:49;;;;;;;72.95;33.30;;;;;;;-5.70;100.00;99329.69;5033118;28;20045;-75
2021/12/25 09:16:34;;;;;;;76.40;32.45;;;;;;;-5.63;100.00;99321.41;5033242;28;20355;-70
2021/12/25 09:19:19;;;;;;;88.15;36.00;;;;;;;-5.59;100.00;99336.00;5031003;28;20401;-70
2021/12/25 09:22:04;;;;;;;117.32;46.58;;;;;;;-5.44;100.00;99331.38;5030860;28;20037;-70
2021/12/25 09:24:49;;;;;;;193.65;75.32;;;;;;;-5.07;100.00;99341.84;5030826;28;20057;-70
2021/12/25 09:27:34;;;;;;;94.53;41.30;;;;;;;-5.17;100.00;99339.03;5031647;28;20071;-70
2021/12/25 09:30:19;;;;;;;77.55;33.22;;;;;;;-5.09;100.00;99330.72;5031533;28;20466;-71
2021/12/25 09:33:04;;;;;;;79.40;32.75;;;;;;;-4.91;100.00;99335.50;5031823;28;20098;-71
2021/12/25 09:35:49;;;;;;;202.75;76.60;;;;;;;-4.95;100.00;99327.75;5032862;28;20055;-71
2021/12/25 09:38:35;;;;;;;86.07;37.03;;;;;;;-5.18;100.00;99332.19;5030698;28;20109;-71
2021/12/25 09:41:19;;;;;;;57.63;26.80;;;;;;;-4.94;100.00;99329.50;5030759;28;20471;-71
2021/12/25 09:44:05;;;;;;;51.10;22.35;;;;;;;-4.85;100.00;99328.00;5031684;28;20042;-71
2021/12/25 09:46:50;;;;;;;44.13;21.00;;;;;;;-4.77;100.00;99329.97;5031816;28;20423;-70
2021/12/25 09:49:35;;;;;;;28.90;14.80;;;;;;;-4.58;100.00;99330.47;5031851;28;20037;-71
2021/12/25 09:52:20;;;;;;;36.92;14.02;;;;;;;-4.64;100.00;99331.19;5031526;28;20094;-71
2021/12/25 09:55:05;;;;;;;37.47;15.43;;;;;;;-4.32;100.00;99318.41;5032393;28;20046;-71
2021/12/25 09:57:49;;;;;;;64.45;27.10;;;;;;;-4.41;100.00;99319.03;5033421;28;20126;-71
2021/12/25 10:00:39;;;;;;;43.80;19.02;;;;;;;-4.39;100.00;99319.06;5031394;28;20046;-70
2021/12/25 10:03:25;;;;;;;24.30;11.38;;;;;;;-4.26;100.00;99316.00;5032590;28;20041;-70
2021/12/25 10:06:26;;;;;;;42.67;17.92;;;;;;;-4.17;100.00;99306.00;5032160;28;20424;-70
2021/12/25 10:09:20;;;;;;;198.10;62.60;;;;;;;-4.30;100.00;99317.63;5032779;28;20037;-70
2021/12/25 10:12:12;;;;;;;81.53;31.50;;;;;;;-4.14;100.00;99300.97;5032840;28;20042;-70
2021/12/25 10:14:56;;;;;;;128.70;44.38;;;;;;;-3.91;100.00;99310.94;5032295;28;20046;-70
2021/12/25 10:17:47;;;;;;;61.58;24.67;;;;;;;-3.94;100.00;99305.72;5032579;28;20056;-70
2021/12/25 10:20:33;;;;;;;34.78;16.00;;;;;;;-3.70;100.00;99310.59;5032869;28;20038;-70
2021/12/25 10:23:25;;;;;;;25.05;11.25;;;;;;;-3.79;100.00;99306.13;5032639;28;20425;-70
2021/12/25 10:26:22;;;;;;;19.80;10.88;;;;;;;-3.77;100.00;99315.56;5032550;28;20065;-70
2021/12/25 10:29:23;;;;;;;21.65;10.07;;;;;;;-3.72;100.00;99317.38;5032453;28;20432;-70
2021/12/25 10:32:19;;;;;;;26.30;10.70;;;;;;;-3.51;100.00;99315.28;5032137;28;20046;-70
2021/12/25 10:35:16;;;;;;;27.10;11.55;;;;;;;-3.66;100.00;99318.38;5032525;28;20060;-70
2021/12/25 10:38:10;;;;;;;27.65;12.70;;;;;;;-3.45;100.00;99322.25;5032692;28;20106;-70
2021/12/25 10:41:08;;;;;;;27.25;13.43;;;;;;;-3.18;100.00;99329.72;5031671;28;20042;-70
2021/12/25 10:44:12;;;;;;;26.95;13.00;;;;;;;-3.42;100.00;99323.19;5032001;28;20041;-70
2021/12/25 10:46:59;;;;;;;24.83;12.15;;;;;;;-3.34;100.00;99321.69;5031749;28;20049;-70
2021/12/25 10:49:46;;;;;;;31.92;11.52;;;;;;;-3.62;100.00;99321.88;5031622;28;20064;-70
2021/12/25 10:52:40;;;;;;;28.70;10.65;;;;;;;-3.44;100.00;99324.88;5032144;28;20060;-70
2021/12/25 10:55:25;;;;;;;;;;;;;;;-3.30;100.00;99318.38;5031925;28;20435;-70
2021/12/25 10:58:22;;;;;;;198.23;56.95;;;;;;;-3.41;100.00;99319.84;5017698;28;20012;-70
2021/12/25 11:01:10;;;;;;;247.65;95.85;;;;;;;-3.73;100.00;99328.44;5031382;28;20134;-70
2021/12/25 11:03:55;;;;;;;81.38;35.28;;;;;;;-3.46;100.00;99311.16;5032045;28;20046;-70
2021/12/25 11:06:42;;;;;;;36.55;17.27;;;;;;;-3.83;100.00;99309.44;5032455;28;20046;-70
2021/12/25 11:09:27;;;;;;;62.55;31.08;;;;;;;-3.83;100.00;99310.31;5031429;28;20052;-70
2021/12/25 11:12:22;;;;;;;152.82;70.90;;;;;;;-3.62;100.00;99306.50;5033643;28;20042;-70
2021/12/25 11:15:30;;;;;;;84.18;45.65;;;;;;;-3.55;100.00;99296.44;5021424;28;20049;-70
2021/12/25 11:18:15;;;;;;;35.50;21.63;;;;;;;-3.72;100.00;99304.56;5035468;28;20358;-70
2021/12/25 11:21:09;;;;;;;24.30;12.18;;;;;;;-3.62;100.00;99309.06;5035399;28;20037;-70
2021/12/25 11:24:04;;;;;;;26.92;12.40;;;;;;;-3.63;100.00;99302.22;5034586;28;20046;-69
2021/12/25 11:26:52;;;;;;;25.63;11.18;;;;;;;-4.18;100.00;99296.63;5034647;28;20337;-69
2021/12/25 11:29:38;;;;;;;21.95;10.25;;;;;;;-4.49;100.00;99317.94;5034574;28;20049;-69
2021/12/25 11:32:24;;;;;;;25.52;11.75;;;;;;;-4.41;100.00;99318.19;5020689;28;20045;-69
2021/12/25 11:35:10;;;;;;;29.27;15.68;;;;;;;-4.23;100.00;99333.97;5035479;28;20045;-69
2021/12/25 11:37:56;;;;;;;28.20;14.18;;;;;;;-4.44;100.00;99328.31;5035213;28;20053;-69
2021/12/25 11:40:48;;;;;;;27.90;12.38;;;;;;;-4.34;100.00;99320.06;5035369;28;20049;-69
2021/12/25 11:43:41;;;;;;;32.30;14.82;;;;;;;-4.44;100.00;99318.09;5034800;28;20046;-69
2021/12/25 11:46:45;;;;;;;33.22;15.75;;;;;;;-4.17;100.00;99315.38;5035164;28;20056;-69
2021/12/25 11:49:29;;;;;;;28.88;14.02;;;;;;;-4.10;100.00;99325.81;5035004;28;20427;-69
2021/12/25 11:52:18;;;;;;;33.10;15.18;;;;;;;-4.13;100.00;99323.16;5034286;28;20049;-69
2021/12/25 11:58:55;;;;;;;31.95;13.70;;;;;;;-4.21;100.00;99324.69;5034939;28;20433;-69
2021/12/25 12:01:43;;;;;;;55.92;20.98;;;;;;;-4.22;100.00;99330.63;5034780;28;20038;-69
2021/12/25 12:04:28;;;;;;;121.93;45.67;;;;;;;-4.45;100.00;99332.56;5034619;28;20097;-69
2021/12/25 12:07:18;;;;;;;99.75;37.78;;;;;;;-4.21;100.00;99321.25;5034510;28;20049;-69
2021/12/25 12:10:44;;;;;;;52.78;23.20;;;;;;;-3.88;100.00;99311.00;5034538;28;20377;-69
2021/12/25 12:14:17;;;;;;;32.17;14.07;;;;;;;-4.09;100.00;99319.03;5009662;28;20122;-69
2021/12/25 12:17:20;;;;;;;34.17;15.18;;;;;;;-3.83;100.00;99324.78;5034992;28;20400;-69
2021/12/25 12:20:16;;;;;;;53.90;27.38;;;;;;;-4.12;100.00;99331.72;5034235;28;20427;-69
2021/12/25 12:23:16;;;;;;;54.72;23.60;;;;;;;-3.95;100.00;99337.28;5033385;28;20052;-69
2021/12/25 12:26:07;;;;;;;38.47;19.48;;;;;;;-4.11;100.00;99318.09;5033719;28;20045;-69
2021/12/25 12:28:53;;;;;;;35.00;17.20;;;;;;;-3.97;100.00;99321.00;5019656;28;20049;-69
2021/12/25 12:31:46;;;;;;;45.40;21.95;;;;;;;-3.91;100.00;99321.16;5033440;28;20060;-69
2021/12/25 12:34:36;;;;;;;305.77;74.10;;;;;;;-3.91;100.00;99331.41;5034594;28;20073;-69
2021/12/25 12:37:20;;;;;;;362.48;110.03;;;;;;;-3.81;100.00;99328.22;5019600;28;20045;-69
2021/12/25 12:40:06;;;;;;;116.32;44.78;;;;;;;-4.03;100.00;99324.25;5034319;28;20069;-69
2021/12/25 12:42:56;;;;;;;320.08;134.50;;;;;;;-4.06;100.00;99329.34;5033773;28;20045;-69
2021/12/25 12:45:52;;;;;;;481.95;170.82;;;;;;;-4.10;100.00;99325.81;5033992;28;20038;-69
2021/12/25 12:48:37;;;;;;;554.67;218.30;;;;;;;-4.31;100.00;99336.34;5033741;28;20048;-69
2021/12/25 12:51:21;;;;;;;224.63;96.03;;;;;;;-4.28;100.00;99327.91;5033998;28;20066;-69
2021/12/25 12:54:06;;;;;;;113.93;54.70;;;;;;;-4.28;100.00;99330.47;5034435;28;20046;-69
2021/12/25 12:57:01;;;;;;;49.83;26.35;;;;;;;-4.42;100.00;99336.88;5034391;28;20050;-68
2021/12/25 13:00:08;;;;;;;34.17;16.85;;;;;;;-4.35;100.00;99336.25;5033264;28;20045;-69
2021/12/25 13:02:55;;;;;;;34.08;16.65;;;;;;;-4.58;100.00;99338.13;5033781;28;20116;-69
2021/12/25 13:05:49;;;;;;;34.25;15.75;;;;;;;-4.64;100.00;99343.97;5019166;28;20071;-69
2021/12/25 13:08:36;;;;;;;26.77;11.95;;;;;;;-4.72;100.00;99358.22;5033479;28;20175;-68
2021/12/25 13:11:27;;;;;;;53.35;24.33;;;;;;;-4.58;100.00;99351.81;5033661;28;20332;-69
2021/12/25 13:14:14;;;;;;;59.15;26.98;;;;;;;-4.79;100.00;99364.84;5034127;28;20419;-68
2021/12/25 13:17:07;;;;;;;59.65;27.55;;;;;;;-4.92;100.00;99362.75;5034149;28;20041;-68
2021/12/25 13:19:51;;;;;;;48.25;21.55;;;;;;;-5.02;100.00;99364.16;5033833;28;20083;-68
2021/12/25 13:22:37;;;;;;;46.55;18.73;;;;;;;-5.15;100.00;99366.31;5019443;28;20046;-68
2021/12/25 13:25:21;;;;;;;65.78;24.92;;;;;;;-5.20;100.00;99358.47;5033923;28;20045;-68
2021/12/25 13:28:06;;;;;;;578.13;181.90;;;;;;;-5.26;100.00;99369.41;5033478;28;20365;-68
2021/12/25 13:30:54;;;;;;;305.27;113.15;;;;;;;-5.39;100.00;99377.50;5032716;28;20359;-68
2021/12/25 13:34:11;;;;;;;155.45;60.15;;;;;;;-5.22;100.00;99372.91;5033273;28;20064;-68
2021/12/25 13:36:57;;;;;;;141.43;44.88;;;;;;;-5.40;100.00;99379.16;5032851;28;20038;-71
2021/12/25 13:39:41;;;;;;;98.05;32.63;;;;;;;-5.49;100.00;99380.53;5033789;28;20109;-68
2021/12/25 13:42:26;;;;;;;158.30;49.85;;;;;;;-5.51;100.00;99379.66;5033252;28;20042;-68
2021/12/25 13:45:10;;;;;;;169.13;51.58;;;;;;;-5.57;100.00;99380.31;5033015;28;20408;-68
2021/12/25 13:47:58;;;;;;;118.65;40.42;;;;;;;-5.44;100.00;99379.03;5033190;28;20048;-68
2021/12/25 13:50:44;;;;;;;186.20;56.95;;;;;;;-5.49;100.00;99381.44;5033288;28;20144;-71
2021/12/25 13:53:31;;;;;;;349.58;125.80;;;;;;;-5.73;100.00;99376.38;5032933;28;20049;-71
2021/12/25 13:56:15;;;;;;;295.73;110.00;;;;;;;-5.79;100.00;99388.06;5032308;28;20080;-68
2021/12/25 13:59:09;;;;;;;164.50;68.13;;;;;;;-5.72;100.00;99397.66;5018471;28;20041;-71
2021/12/25 14:01:58;;;;;;;110.60;41.92;;;;;;;-5.87;100.00;99391.25;5033553;28;20071;-71
2021/12/25 14:04:46;;;;;;;193.70;80.75;;;;;;;-5.95;100.00;99397.78;5032734;28;20041;-71
2021/12/25 14:07:30;;;;;;;97.40;44.47;;;;;;;-6.12;100.00;99399.75;5032957;28;20351;-71
2021/12/25 14:10:18;;;;;;;79.28;35.05;;;;;;;-6.15;100.00;99392.00;5018392;28;20113;-71
2021/12/25 14:13:09;;;;;;;72.25;31.98;;;;;;;-6.26;100.00;99392.47;5018270;28;20050;-71
2021/12/25 14:15:56;;;;;;;75.03;31.17;;;;;;;-6.50;100.00;99395.88;5032721;28;20041;-71
2021/12/25 14:18:40;;;;;;;73.93;28.63;;;;;;;-6.61;100.00;99398.00;5032699;28;20043;-71